Whitney, Texas
Current Conditions -  °F | °C
As of 8:55 PM on Wednesday 26 Nov 2014 (Local Time) from KINJ Reporting Station
Clear Clear  
Wind Chill: 45°   Ceiling: Unl
Heat Index: 47°   Visibility: 10mi
Dew Point: 32°   Wind: 5mph
Humidity: 56%   Direction: 350°N
Pressure: 30.33"   Gusts: NA
Location:  31.95°N, 97.32°W
Report Text: KINJ 270255Z AUTO 35004KT 10SM CLR 09/00 A3033 RMK AO2 T00850001
Loading
Personal Weather Stations






























Interactive Weather Map New forecast layout! Learn more

10-Day Weather Forecast

Advertisements
Track Severe Weather on mobile